Hummelstown, Pennsylvania
Current Conditions -  °F | °C
As of 4:56 PM on Monday 26 Jan 2015 (Local Time) from KMDT Reporting Station
Light Snow Light Snow  
Wind Chill: 16°   Ceiling: 2800
Heat Index: 24°   Visibility: 7mi
Dew Point: 18°   Wind: 7mph
Humidity: 77%   Direction: 50°NE
Pressure: 29.78"   Gusts: NA
Location:  40.27°N, 76.71°W
Report Text: KMDT 262156Z 05006KT 7SM -SN FEW020 OVC028 M04/M08 A2978 RMK AO2 SLP090 P0000 T10441078
Loading
Personal Weather Stations






























Interactive Weather Map New forecast layout! Learn more

10-Day Weather Forecast

Advertisements
Track Severe Weather on mobile